Terminal Aerodrome Forecast
Issued by NWS

Home | Current Version | Previous Version | Text Only | Print | Product List | Glossary On
Versions: 1 2 3 4 5 6 7 8 9 10 11 12 13 14
000
FTUS42 TJSJ 231724
TAFIST
TAF
TIST 231724Z 2318/2418 11016KT P6SM VCSH SCT025 BKN040
      TEMPO 2318/2322 VRB16G24KT 3SM SHRA BKN025
     FM232300 09009KT P6SM FEW030 SCT060 SCT120
     FM240600 08007KT P6SM VCSH SCT022 BKN040
     FM241400 11014KT P6SM SCT030 SCT050=

USA.gov is the U.S. government's official web portal to all federal, state and local government web resources and services.